Time;durP1;ratioP1;P1;durP2;ratioP2;P2;SDS_P1;SDS_P2;PMS_P1;PMS_P2;Temp;Humidity;BMP_temperature;BMP_pressure;BME280_temperature;BME280_humidity;BME280_pressure;Samples;Min_cycle;Max_cycle;Signal;HPM_P1;HPM_P2
2024/01/16 12:30:57;;;;;;;4.43;3.05;;;;;;;;;;6021225;23;20165;31
2024/01/16 12:33:22;;;;;;;5.07;3.08;;;;;;;;;;4901785;29;20056;-92
2024/01/16 12:35:48;;;;;;;4.90;2.95;;;;;;;;;;4916352;29;20032;-90
2024/01/16 12:38:15;;;;;;;3.97;3.00;;;;;;;;;;4903083;29;20032;-89
2024/01/16 12:40:51;;;;;;;3.90;2.70;;;;;;;;;;4902056;29;20031;-88
2024/01/16 12:43:18;;;;;;;2.80;2.60;;;;;;;;;;4902416;29;20088;-93
2024/01/16 17:55:56;;;;;;;10.77;5.68;;;;;;;;;;4953094;28;20059;-89
2024/01/16 17:58:21;;;;;;;7.60;5.45;;;;;;;;;;4939177;29;20554;-91
2024/01/16 18:00:47;;;;;;;26.70;13.48;;;;;;;;;;4953629;29;20118;-92
2024/01/16 18:03:14;;;;;;;15.50;10.20;;;;;;;;;;4940875;28;20074;-89
2024/01/16 18:05:39;;;;;;;16.55;11.13;;;;;;;;;;4925997;29;20027;-91
2024/01/16 18:08:07;;;;;;;15.75;10.20;;;;;;;;;;4919303;29;20383;-88
2024/01/16 18:10:33;;;;;;;15.50;9.70;;;;;;;;;;4917839;29;20074;-90
2024/01/16 18:12:58;;;;;;;15.80;9.43;;;;;;;;;;4917541;29;20055;-89
2024/01/16 18:15:27;;;;;;;16.35;9.88;;;;;;;;;;4927757;29;20480;-91
2024/01/16 18:17:55;;;;;;;14.90;11.23;;;;;;;;;;4899617;29;20033;-91
2024/01/16 18:20:21;;;;;;;8.98;6.10;;;;;;;;;;4914217;29;20032;-91
2024/01/16 18:22:55;;;;;;;8.82;6.43;;;;;;;;;;4919622;29;20043;-91
2024/01/16 18:25:24;;;;;;;13.13;7.03;;;;;;;;;;4933992;29;20043;-90
2024/01/16 18:27:52;;;;;;;9.48;6.88;;;;;;;;;;4918116;29;20387;-93
2024/01/16 18:30:18;;;;;;;11.38;7.88;;;;;;;;;;4917334;29;20074;-88
2024/01/16 18:32:48;;;;;;;9.70;6.10;;;;;;;;;;4917776;29;20035;-87
2024/01/16 18:35:16;;;;;;;9.82;6.60;;;;;;;;;;4918917;29;20028;-87
2024/01/16 18:37:42;;;;;;;10.20;6.13;;;;;;;;;;4912964;29;20060;-89
2024/01/16 18:40:09;;;;;;;11.80;8.18;;;;;;;;;;4919765;29;20487;-88
2024/01/16 18:42:39;;;;;;;9.90;6.55;;;;;;;;;;4933772;29;20044;-89
2024/01/16 18:45:05;;;;;;;10.30;6.93;;;;;;;;;;4917869;29;20063;-92
2024/01/16 18:47:32;;;;;;;12.63;8.95;;;;;;;;;;4917536;29;20131;-91
2024/01/16 18:49:58;;;;;;;18.73;12.63;;;;;;;;;;4918423;29;20111;-90
2024/01/16 18:52:24;;;;;;;12.38;8.52;;;;;;;;;;4920754;29;20480;-88
2024/01/16 18:54:50;;;;;;;9.30;7.25;;;;;;;;;;4951711;29;20043;-90
2024/01/16 18:57:17;;;;;;;12.02;6.60;;;;;;;;;;4936687;29;20116;-89
2024/01/16 18:59:45;;;;;;;8.88;6.32;;;;;;;;;;4936548;29;20479;-87
2024/01/16 19:02:13;;;;;;;11.75;7.53;;;;;;;;;;4935124;29;20466;-88
2024/01/16 19:04:48;;;;;;;15.18;8.75;;;;;;;;;;4935360;29;20091;-87
2024/01/16 19:07:24;;;;;;;25.83;16.23;;;;;;;;;;4930763;29;20079;-88
2024/01/16 19:09:49;;;;;;;24.00;13.20;;;;;;;;;;4917317;29;20055;-89
2024/01/16 19:12:27;;;;;;;16.67;10.30;;;;;;;;;;4917531;29;20471;-89
2024/01/16 19:14:53;;;;;;;15.63;8.93;;;;;;;;;;4924708;29;20038;-88
2024/01/16 19:17:30;;;;;;;10.93;7.75;;;;;;;;;;4932157;29;20072;-89
2024/01/16 19:19:56;;;;;;;14.00;8.30;;;;;;;;;;4916381;29;20035;-90
2024/01/16 19:22:26;;;;;;;12.07;7.82;;;;;;;;;;4931856;29;20048;-88
2024/01/16 19:24:52;;;;;;;11.65;7.65;;;;;;;;;;4933008;29;20084;-90
2024/01/16 19:27:20;;;;;;;10.98;7.20;;;;;;;;;;4933987;29;20436;-88
2024/01/16 19:29:46;;;;;;;12.40;7.07;;;;;;;;;;4921791;29;20020;-91
2024/01/16 19:32:12;;;;;;;11.05;6.88;;;;;;;;;;4923779;29;20039;-87
2024/01/16 19:34:40;;;;;;;11.10;6.88;;;;;;;;;;4939802;29;20047;-87
2024/01/16 19:37:08;;;;;;;12.45;7.60;;;;;;;;;;4920954;29;20042;-87
2024/01/16 19:39:36;;;;;;;14.45;8.18;;;;;;;;;;4922496;29;20024;-91
2024/01/16 19:42:02;;;;;;;13.80;7.80;;;;;;;;;;4936384;29;20024;-88
2024/01/16 19:44:27;;;;;;;10.13;7.28;;;;;;;;;;4920493;29;20036;-87
2024/01/16 19:46:53;;;;;;;12.60;8.32;;;;;;;;;;4937001;29;20505;-89
2024/01/16 19:49:18;;;;;;;17.85;8.93;;;;;;;;;;4936703;29;20056;-87
2024/01/16 19:51:45;;;;;;;12.60;8.05;;;;;;;;;;4921073;29;20032;-88
2024/01/16 19:54:12;;;;;;;13.63;8.52;;;;;;;;;;4937832;29;20039;-88
2024/01/16 19:56:40;;;;;;;12.85;7.40;;;;;;;;;;4935615;29;20044;-88
2024/01/16 19:59:11;;;;;;;11.32;7.55;;;;;;;;;;4920709;29;20112;-89
2024/01/16 20:01:36;;;;;;;10.98;7.32;;;;;;;;;;4920912;29;20099;-88
2024/01/16 20:04:05;;;;;;;12.35;7.38;;;;;;;;;;4919515;29;20108;-88
2024/01/16 20:06:31;;;;;;;10.63;7.60;;;;;;;;;;4935149;29;20115;-87
2024/01/16 20:09:04;;;;;;;11.38;7.78;;;;;;;;;;4935402;29;20032;-89
2024/01/16 20:11:32;;;;;;;16.95;9.13;;;;;;;;;;4921442;29;20039;-88
2024/01/16 20:13:59;;;;;;;27.73;14.48;;;;;;;;;;4919850;29;20103;-88
2024/01/16 20:16:28;;;;;;;28.20;14.10;;;;;;;;;;4919553;29;20087;-90
2024/01/16 20:18:57;;;;;;;19.63;11.23;;;;;;;;;;4919227;29;20032;-88
2024/01/16 20:21:24;;;;;;;32.75;14.98;;;;;;;;;;4920169;29;20028;-88
2024/01/16 20:23:52;;;;;;;26.20;13.20;;;;;;;;;;4918909;29;20476;-87
2024/01/16 20:26:21;;;;;;;85.78;39.13;;;;;;;;;;4918888;29;20030;-87
2024/01/16 20:28:51;;;;;;;121.75;53.30;;;;;;;;;;4918994;29;20028;-89
2024/01/16 20:31:17;;;;;;;41.70;22.23;;;;;;;;;;4920028;29;20115;-88
2024/01/16 20:33:48;;;;;;;27.48;16.65;;;;;;;;;;4920184;29;20056;-87
2024/01/16 20:36:20;;;;;;;26.70;14.63;;;;;;;;;;4919322;29;20119;-88
2024/01/16 20:38:46;;;;;;;25.40;15.73;;;;;;;;;;4917728;29;20033;-89
2024/01/16 20:41:13;;;;;;;19.20;12.68;;;;;;;;;;4918950;29;20028;-89
2024/01/16 20:43:38;;;;;;;17.25;10.73;;;;;;;;;;4918727;29;20035;-89
2024/01/16 20:46:14;;;;;;;13.30;8.93;;;;;;;;;;4920137;29;20032;-87
2024/01/16 20:48:40;;;;;;;13.25;7.72;;;;;;;;;;4919058;29;20419;-88
2024/01/16 20:51:05;;;;;;;13.95;9.25;;;;;;;;;;4921315;29;20032;-93
2024/01/16 20:53:31;;;;;;;36.42;23.77;;;;;;;;;;4936219;29;20103;-90
2024/01/16 20:55:57;;;;;;;176.82;71.35;;;;;;;;;;4919606;29;20028;-89
2024/01/16 20:58:23;;;;;;;94.55;37.13;;;;;;;;;;4919489;29;20484;-88
2024/01/16 21:00:49;;;;;;;65.25;27.08;;;;;;;;;;4919628;29;20056;-90
2024/01/16 21:03:20;;;;;;;40.50;17.58;;;;;;;;;;4918907;29;20074;-92
2024/01/16 21:05:54;;;;;;;29.10;15.43;;;;;;;;;;4919705;29;20060;-92
2024/01/16 21:08:20;;;;;;;20.35;13.35;;;;;;;;;;4916336;29;20092;-91
2024/01/16 21:10:46;;;;;;;21.42;13.80;;;;;;;;;;4918504;29;20024;-93
2024/01/16 21:13:15;;;;;;;23.08;14.60;;;;;;;;;;4924852;29;20391;-92
2024/01/16 21:15:41;;;;;;;23.52;13.07;;;;;;;;;;4920453;29;20111;-91
2024/01/16 21:18:07;;;;;;;23.58;14.45;;;;;;;;;;4914979;29;20029;-91
2024/01/16 21:20:34;;;;;;;22.10;14.73;;;;;;;;;;4914317;29;20032;-92
2024/01/16 21:23:00;;;;;;;22.75;14.23;;;;;;;;;;4920760;29;20020;-92
2024/01/16 21:25:25;;;;;;;28.42;15.85;;;;;;;;;;4919224;29;20030;-91
2024/01/16 21:27:52;;;;;;;28.58;16.90;;;;;;;;;;4919194;29;20036;-93
2024/01/16 21:30:18;;;;;;;31.98;17.27;;;;;;;;;;4919261;29;20047;-92
2024/01/16 21:32:43;;;;;;;30.77;16.55;;;;;;;;;;4919307;29;20032;-93
2024/01/16 21:35:09;;;;;;;29.90;18.30;;;;;;;;;;4919813;29;20028;-88
2024/01/16 21:37:41;;;;;;;26.98;16.45;;;;;;;;;;4920370;29;20140;-87
2024/01/16 21:40:08;;;;;;;28.33;17.10;;;;;;;;;;4911408;29;20071;-92
2024/01/16 21:42:34;;;;;;;33.50;18.30;;;;;;;;;;4902865;29;20032;-91
2024/01/16 21:45:05;;;;;;;45.50;23.83;;;;;;;;;;4919874;29;20522;-91
2024/01/16 21:47:30;;;;;;;77.88;39.03;;;;;;;;;;4919036;29;20088;-92
2024/01/16 21:49:56;;;;;;;63.67;31.77;;;;;;;;;;4920614;29;20427;-89
2024/01/16 21:52:21;;;;;;;47.55;26.77;;;;;;;;;;4917908;29;20518;-91
2024/01/16 21:54:47;;;;;;;60.08;30.50;;;;;;;;;;4902156;29;20033;-90
2024/01/16 21:57:13;;;;;;;41.05;24.05;;;;;;;;;;4918637;29;20100;-91
2024/01/16 21:59:39;;;;;;;32.53;19.75;;;;;;;;;;4918460;29;20035;-89
2024/01/16 22:02:07;;;;;;;24.98;14.80;;;;;;;;;;4917267;29;20028;-92
2024/01/16 22:04:32;;;;;;;22.25;13.68;;;;;;;;;;4918470;29;20032;-90
2024/01/16 22:06:58;;;;;;;24.67;14.55;;;;;;;;;;4918365;29;20082;-88
2024/01/16 22:09:27;;;;;;;22.58;14.13;;;;;;;;;;4916921;29;20028;-88
2024/01/16 22:11:53;;;;;;;20.33;13.25;;;;;;;;;;4918258;29;20675;-90
2024/01/16 22:14:18;;;;;;;25.15;15.60;;;;;;;;;;4917040;29;20039;-88
2024/01/16 22:16:44;;;;;;;22.17;13.80;;;;;;;;;;4918310;29;20020;-89
2024/01/16 22:19:09;;;;;;;22.35;14.05;;;;;;;;;;4918176;29;20108;-87
2024/01/16 22:21:34;;;;;;;21.63;14.00;;;;;;;;;;4917853;29;20058;-87
2024/01/16 22:24:00;;;;;;;26.83;16.45;;;;;;;;;;4916762;29;20028;-92
2024/01/16 22:26:26;;;;;;;24.08;15.52;;;;;;;;;;4916636;29;20039;-89
2024/01/16 22:28:51;;;;;;;23.70;17.30;;;;;;;;;;4917909;29;20028;-87
2024/01/16 22:31:17;;;;;;;22.55;14.93;;;;;;;;;;4916521;29;20071;-88
2024/01/16 22:33:42;;;;;;;22.20;14.43;;;;;;;;;;4916778;29;20043;-89
2024/01/16 22:36:09;;;;;;;23.63;15.25;;;;;;;;;;4917661;29;20391;-88
2024/01/16 22:38:36;;;;;;;25.15;15.07;;;;;;;;;;4909365;29;20115;-89
2024/01/16 22:41:03;;;;;;;20.88;13.45;;;;;;;;;;4909822;29;20030;-89
2024/01/16 22:43:29;;;;;;;22.92;14.52;;;;;;;;;;4916194;29;20020;-88
2024/01/16 22:45:55;;;;;;;23.98;14.63;;;;;;;;;;4916623;29;20059;-87
2024/01/16 22:48:20;;;;;;;24.58;14.27;;;;;;;;;;4916202;29;20391;-87
2024/01/16 22:50:49;;;;;;;20.13;13.05;;;;;;;;;;4916218;29;20494;-87
2024/01/16 22:53:15;;;;;;;16.85;11.57;;;;;;;;;;4916402;29;20043;-88
2024/01/16 22:55:42;;;;;;;20.48;12.05;;;;;;;;;;4917364;29;20494;-87
2024/01/16 22:58:08;;;;;;;17.10;10.98;;;;;;;;;;4917429;29;20472;-86
2024/01/16 23:00:39;;;;;;;17.63;12.05;;;;;;;;;;4915974;29;20063;-89
2024/01/16 23:03:09;;;;;;;22.85;11.57;;;;;;;;;;4916185;29;20095;-86
2024/01/16 23:05:43;;;;;;;20.20;12.02;;;;;;;;;;4915894;29;20123;-88
2024/01/16 23:08:10;;;;;;;19.02;11.73;;;;;;;;;;4916197;29;20448;-86
